Spring House, PA

11:08 AM EDT on May 06, 2015 (GMT -0400)
Philadelphia Wings Airport | | Change Station
CLOSE
Current Station
Airport
Location: Philadelphia Wings Airport,
Elevation: 302 ft
Nearby Weather Stations

Elev 302 ft 40.14 °N, 75.27 °W | Updated 13 minutes ago

Partly Cloudy
Partly Cloudy
70 °F
Feels Like 70 °F
N
10
Wind Variable Wind from East
Gusts 16 mph

Today
High -- | Low -- °F
--% Chance of Precip.
Yesterday
High -- | Low -- °F
Precip. -- in
5:54 AM 8:00 PM
Waning Gibbous, 94% visible
Pressure 30.28 in
Visibility 10.0 miles
Clouds Scattered Clouds 7000 ft
Dew Point 46 °F
Humidity 43%
Rainfall 0.00 in
Snow Depth Not available.
UV 7 out of 12
Pollen 7.70 out of 12
Air Quality Not available.
Flu Activity Sporadic
METAR KLOM 061455Z AUTO 08009G14KT 10SM SCT070 21/08 A3028 RMK AO1

More Conditions Fewer Conditions

Pressure 30.28 in
Visibility 10.0 miles
Clouds Scattered Clouds 7000 ft
Dew Point 46 °F
Humidity 43%
Rainfall 0.00 in
Snow Depth Not available.
UV 7 out of 12
Pollen 7.70 out of 12
Air Quality Not available.
Flu Activity Sporadic
METAR KLOM 061455Z AUTO 08009G14KT 10SM SCT070 21/08 A3028 RMK AO1

More Conditions Fewer Conditions

Nowcast | as of 11:02 am EDT on May 6, 2015

Showers will continue to move across the area through the early afternoon hours. Most rain will remain light, although some pockets of moderate to heavy rain may also occur. A rumble of thunder cannot be ruled out.

×

10-Day Weather Forecast

Almanac

Astronomy

May. 06, 2015 Rise Set
Actual Time
Civil Twilight
Nautical Twilight
Astronomical Twilight
Moon
Length of Visible Light
Length of Day
Tomorrow will be .
, % of the Moon is Illuminated

Today's Extremes

State Highs State Lows

Community

WunderPhotos

Upload Photos

1,818,926 photos uploaded!

WunderBlogs® & News

Nearby

Air Quality

  Air Quality AQ Index Pollutant
Not available.

Snow Depth

Station Depth Elevation

Earthquake Activity

City Distance Mag. Time & Date
Minimum magnitude displayed is 2.5.

Coastal Water Temperatures

Place Temperature

Stations

Nearby Weather Stations

Station Location Temp. Windchill Dew Point Humidity Wind Precip. Elev Updated Type